createdAt,value
2018-03-15T00:03:02.226Z,20.13
2018-03-15T00:06:06.355Z,18.50
2018-03-15T00:09:10.481Z,18.03
2018-03-15T00:12:14.250Z,18.50
2018-03-15T00:15:19.127Z,19.27
2018-03-15T00:18:22.510Z,18.17
2018-03-15T00:21:25.912Z,19.07
2018-03-15T00:24:30.051Z,19.27
2018-03-15T00:27:33.410Z,19.07
2018-03-15T00:30:36.795Z,18.07
2018-03-15T00:33:41.673Z,20.10
2018-03-15T00:36:45.034Z,20.93
2018-03-15T00:39:48.442Z,20.70
2018-03-15T00:42:51.808Z,21.97
2018-03-15T00:45:55.218Z,19.53
2018-03-15T00:48:58.574Z,21.03
2018-03-15T00:52:01.926Z,21.33
2018-03-15T00:55:06.059Z,20.80
2018-03-15T00:58:10.194Z,20.87
2018-03-15T01:01:13.549Z,21.37
2018-03-15T01:04:16.918Z,20.67
2018-03-15T01:07:20.266Z,20.53
2018-03-15T01:10:23.623Z,21.10
2018-03-15T01:13:26.971Z,19.43
2018-03-15T01:16:31.088Z,20.50
2018-03-15T01:19:35.207Z,20.07
2018-03-15T01:22:39.337Z,20.70
2018-03-15T01:25:42.683Z,20.40
2018-03-15T01:28:46.047Z,16.43
2018-03-15T01:31:49.464Z,16.00
2018-03-15T01:34:52.826Z,15.83
2018-03-15T01:37:56.949Z,14.03
2018-03-15T01:41:00.339Z,12.73
2018-03-15T01:44:04.456Z,13.33
2018-03-15T01:47:08.580Z,12.73
2018-03-15T01:50:12.729Z,12.90
2018-03-15T01:53:16.109Z,12.70
2018-03-15T01:56:19.500Z,12.27
2018-03-15T01:59:22.879Z,13.80
2018-03-15T02:02:26.996Z,13.07
2018-03-15T02:05:31.131Z,12.23
2018-03-15T02:08:34.482Z,11.53
2018-03-15T02:11:37.866Z,10.80
2018-03-15T02:14:41.213Z,11.67
2018-03-15T02:17:45.328Z,11.87
2018-03-15T02:20:49.461Z,11.03
2018-03-15T02:23:52.844Z,11.17
2018-03-15T02:26:57.093Z,11.10
2018-03-15T02:30:00.462Z,10.17
2018-03-15T02:33:04.661Z,11.23
2018-03-15T02:36:09.528Z,11.70
2018-03-15T02:39:12.886Z,11.00
2018-03-15T02:42:16.260Z,11.43
2018-03-15T02:45:19.616Z,10.47
2018-03-15T02:48:23.739Z,11.87
2018-03-15T02:51:27.866Z,11.77
2018-03-15T02:54:31.228Z,11.93
2018-03-15T02:57:35.341Z,11.70
2018-03-15T03:00:39.513Z,11.03
2018-03-15T03:03:43.018Z,11.40
2018-03-15T03:06:46.387Z,11.40
2018-03-15T03:09:50.515Z,10.30
2018-03-15T03:12:53.899Z,9.27
2018-03-15T03:15:58.042Z,8.60
2018-03-15T03:19:01.398Z,7.60
2018-03-15T03:22:04.746Z,6.63
2018-03-15T03:25:08.100Z,6.23
2018-03-15T03:28:11.471Z,5.93
2018-03-15T03:31:14.829Z,6.03
2018-03-15T03:34:18.188Z,5.93
2018-03-15T03:37:21.664Z,5.63
2018-03-15T03:40:25.017Z,6.20
2018-03-15T03:43:29.154Z,6.10
2018-03-15T03:46:32.506Z,6.30
2018-03-15T03:49:35.859Z,6.50
2018-03-15T03:52:39.218Z,6.03
2018-03-15T03:55:43.323Z,5.80
2018-03-15T03:58:46.698Z,6.50
2018-03-15T04:01:50.056Z,5.67
2018-03-15T04:04:53.400Z,5.83
2018-03-15T04:07:57.527Z,5.60
2018-03-15T04:11:01.693Z,5.93
2018-03-15T04:14:05.052Z,5.37
2018-03-15T04:17:08.407Z,5.40
2018-03-15T04:20:11.771Z,7.20
2018-03-15T04:23:15.206Z,6.47
2018-03-15T04:26:18.720Z,6.93
2018-03-15T04:29:22.073Z,6.57
2018-03-15T04:32:25.397Z,7.10
2018-03-15T04:35:28.744Z,7.53
2018-03-15T04:38:32.917Z,7.87
2018-03-15T04:41:36.392Z,7.60
2018-03-15T04:44:39.790Z,7.90
2018-03-15T04:47:43.914Z,8.20
2018-03-15T04:50:47.303Z,9.07
2018-03-15T04:53:51.547Z,9.20
2018-03-15T04:56:54.895Z,8.40
2018-03-15T04:59:58.254Z,9.43
2018-03-15T05:03:01.622Z,9.83
2018-03-15T05:06:04.982Z,9.63
2018-03-15T05:09:08.334Z,8.87
2018-03-15T05:12:11.720Z,9.57
2018-03-15T05:15:15.140Z,8.20
2018-03-15T05:18:18.528Z,7.80
2018-03-15T05:21:21.907Z,7.70
2018-03-15T05:24:26.038Z,8.57
2018-03-15T05:27:29.381Z,7.57
2018-03-15T05:30:32.734Z,6.30
2018-03-15T05:33:36.101Z,7.13
2018-03-15T05:36:39.453Z,6.27
2018-03-15T05:39:42.810Z,7.07
2018-03-15T05:42:46.921Z,6.53
2018-03-15T05:45:50.260Z,6.13
2018-03-15T05:48:53.622Z,6.63
2018-03-15T05:51:57.786Z,6.10
2018-03-15T05:55:01.168Z,6.83
2018-03-15T05:58:04.546Z,6.37
2018-03-15T06:01:08.746Z,5.83
2018-03-15T06:04:12.120Z,5.40
2018-03-15T06:07:15.466Z,5.60
2018-03-15T06:10:19.617Z,4.87
2018-03-15T06:13:22.989Z,6.03
2018-03-15T06:16:26.337Z,5.90
2018-03-15T06:19:29.683Z,5.10
2018-03-15T06:22:33.914Z,4.93
2018-03-15T06:25:37.295Z,4.93
2018-03-15T06:28:41.465Z,6.43
2018-03-15T06:31:44.816Z,5.13
2018-03-15T06:34:48.187Z,5.43
2018-03-15T06:37:51.546Z,5.23
2018-03-15T06:40:54.890Z,5.17
2018-03-15T06:43:58.307Z,5.00
2018-03-15T06:47:02.431Z,4.50
2018-03-15T06:50:05.817Z,5.53
2018-03-15T06:53:10.004Z,5.00
2018-03-15T06:56:13.344Z,4.60
2018-03-15T06:59:17.482Z,5.23
2018-03-15T07:02:20.838Z,4.67
2018-03-15T07:05:24.987Z,5.00
2018-03-15T07:08:28.341Z,5.43
2018-03-15T07:11:32.519Z,5.30
2018-03-15T07:14:35.926Z,4.73
2018-03-15T07:17:39.309Z,4.50
2018-03-15T07:20:42.874Z,5.57
2018-03-15T07:23:46.221Z,4.67
2018-03-15T07:26:49.570Z,5.33
2018-03-15T07:29:52.929Z,4.90
2018-03-15T07:32:56.306Z,5.20
2018-03-15T07:35:59.657Z,5.67
2018-03-15T07:39:04.602Z,5.47
2018-03-15T07:42:07.963Z,5.43
2018-03-15T07:45:11.346Z,5.87
2018-03-15T07:48:14.779Z,5.37
2018-03-15T07:51:18.129Z,5.00
2018-03-15T07:54:21.522Z,5.37
2018-03-15T07:57:24.871Z,4.87
2018-03-15T08:00:28.234Z,4.83
2018-03-15T08:03:31.601Z,4.57
2018-03-15T08:06:35.865Z,5.07
2018-03-15T08:09:39.237Z,4.73
2018-03-15T08:12:43.415Z,4.43
2018-03-15T08:15:46.764Z,4.40
2018-03-15T08:18:50.224Z,5.57
2018-03-15T08:21:54.342Z,4.40
2018-03-15T08:24:59.199Z,4.27
2018-03-15T08:28:03.344Z,4.80
2018-03-15T08:31:06.915Z,4.53
2018-03-15T08:34:11.217Z,3.87
2018-03-15T08:37:15.345Z,4.47
2018-03-15T08:40:19.463Z,4.13
2018-03-15T08:43:23.600Z,3.80
2018-03-15T08:46:26.996Z,4.50
2018-03-15T08:49:31.113Z,4.07
2018-03-15T08:52:34.473Z,4.10
2018-03-15T08:55:39.347Z,4.00
2018-03-15T08:58:42.702Z,3.33
2018-03-15T09:01:46.848Z,3.80
2018-03-15T09:04:50.368Z,4.60
2018-03-15T09:07:53.721Z,3.50
2018-03-15T09:10:57.086Z,3.40
2018-03-15T09:14:01.566Z,3.20
2018-03-15T09:17:05.720Z,3.60
2018-03-15T09:20:09.913Z,3.63
2018-03-15T09:23:14.034Z,3.73
2018-03-15T09:26:18.163Z,4.20
2018-03-15T09:29:21.556Z,3.33
2018-03-15T09:32:24.914Z,3.97
2018-03-15T09:35:28.288Z,3.63
2018-03-15T09:38:31.716Z,3.73
2018-03-15T09:41:35.154Z,3.70
2018-03-15T09:44:38.574Z,3.57
2018-03-15T09:47:42.069Z,3.80
2018-03-15T09:50:45.576Z,3.47
2018-03-15T09:53:49.161Z,3.50
2018-03-15T09:56:52.575Z,3.33
2018-03-15T09:59:55.953Z,2.83
2018-03-15T10:02:59.330Z,3.10
2018-03-15T10:06:02.710Z,3.53
2018-03-15T10:09:06.917Z,3.50
2018-03-15T10:12:10.296Z,3.33
2018-03-15T10:15:17.598Z,2.83
2018-03-15T10:18:20.987Z,2.90
2018-03-15T10:21:24.385Z,2.93
2018-03-15T10:24:27.770Z,3.00
2018-03-15T10:27:31.153Z,3.07
2018-03-15T10:30:34.565Z,3.10
2018-03-15T10:33:38.194Z,3.00
2018-03-15T10:36:41.597Z,3.00
2018-03-15T10:39:44.973Z,2.90
2018-03-15T10:42:48.377Z,2.80
2018-03-15T10:45:51.778Z,2.50
2018-03-15T10:48:55.147Z,3.03
2018-03-15T10:51:59.306Z,2.80
2018-03-15T10:55:02.678Z,3.00
2018-03-15T10:58:06.031Z,3.03
2018-03-15T11:01:25.933Z,3.10
2018-03-15T11:04:34.278Z,3.77
2018-03-15T11:07:40.547Z,2.97
2018-03-15T11:10:43.944Z,3.13
2018-03-15T11:13:47.312Z,3.10
2018-03-15T11:16:50.863Z,2.57
2018-03-15T11:19:54.235Z,2.63
2018-03-15T11:22:57.613Z,3.77
2018-03-15T11:26:00.996Z,3.10
2018-03-15T11:29:05.186Z,3.43
2018-03-15T11:32:08.558Z,2.80
2018-03-15T11:35:12.080Z,3.10
2018-03-15T11:38:15.480Z,3.27
2018-03-15T11:41:18.823Z,2.90
2018-03-15T11:44:22.986Z,3.27
2018-03-15T11:47:26.361Z,3.20
2018-03-15T11:50:30.635Z,3.20
2018-03-15T11:53:34.390Z,2.10
2018-03-15T11:56:38.542Z,2.63
2018-03-15T11:59:41.990Z,2.30
2018-03-15T12:02:46.109Z,2.20
2018-03-15T12:05:49.499Z,2.57
2018-03-15T12:08:54.417Z,6.90
2018-03-15T12:11:57.819Z,2.00
2018-03-15T12:15:01.210Z,1.83
2018-03-15T12:18:04.754Z,2.00
2018-03-15T12:21:08.138Z,1.93
2018-03-15T12:24:11.493Z,2.03
2018-03-15T12:27:14.841Z,1.87
2018-03-15T12:30:18.962Z,2.10
2018-03-15T12:33:23.842Z,2.17
2018-03-15T12:36:27.202Z,2.23
2018-03-15T12:39:30.597Z,1.83
2018-03-15T12:42:33.979Z,1.83
2018-03-15T12:45:38.155Z,2.00
2018-03-15T12:48:41.506Z,2.10
2018-03-15T12:51:44.947Z,2.40
2018-03-15T12:54:48.319Z,2.27
2018-03-15T12:57:52.435Z,2.30
2018-03-15T13:00:55.834Z,2.00
2018-03-15T13:03:59.182Z,2.07
2018-03-15T13:07:02.577Z,2.30
2018-03-15T13:10:05.950Z,2.07
2018-03-15T13:13:10.154Z,1.93
2018-03-15T13:16:14.273Z,2.67
2018-03-15T13:19:17.648Z,2.67
2018-03-15T13:22:22.509Z,2.30
2018-03-15T13:25:26.631Z,2.10
2018-03-15T13:28:30.745Z,2.40
2018-03-15T13:31:35.058Z,2.30
2018-03-15T13:34:38.519Z,2.40
2018-03-15T13:37:41.897Z,2.90
2018-03-15T13:40:45.254Z,2.20
2018-03-15T13:43:48.654Z,2.50
2018-03-15T13:46:51.999Z,2.17
2018-03-15T13:49:55.344Z,2.60
2018-03-15T13:52:58.697Z,3.03
2018-03-15T13:56:02.184Z,2.50
2018-03-15T13:59:05.549Z,2.53
2018-03-15T14:02:08.918Z,2.43
2018-03-15T14:05:12.290Z,2.70
2018-03-15T14:08:15.662Z,2.23
2018-03-15T14:11:19.846Z,2.37
2018-03-15T14:14:23.263Z,2.73
2018-03-15T14:17:26.640Z,2.60
2018-03-15T14:20:30.002Z,3.20
2018-03-15T14:23:33.369Z,2.80
2018-03-15T14:26:37.497Z,3.00
2018-03-15T14:29:41.707Z,3.00
2018-03-15T14:32:45.092Z,3.00
2018-03-15T14:35:48.438Z,3.10
2018-03-15T14:38:51.872Z,2.70
2018-03-15T14:41:56.781Z,2.90
2018-03-15T14:45:00.146Z,3.20
2018-03-15T14:48:04.342Z,2.80
2018-03-15T14:51:07.715Z,3.30
2018-03-15T14:54:11.274Z,3.10
2018-03-15T14:57:14.882Z,2.80
2018-03-15T15:00:18.242Z,3.60
2018-03-15T15:03:21.617Z,2.80
2018-03-15T15:06:24.985Z,3.10
2018-03-15T15:09:28.346Z,2.60
2018-03-15T15:12:31.751Z,3.47
2018-03-15T15:15:35.130Z,3.50
2018-03-15T15:18:40.052Z,3.77
2018-03-15T15:21:43.431Z,3.37
2018-03-15T15:24:46.905Z,3.53
2018-03-15T15:27:51.108Z,4.40
2018-03-15T15:30:55.221Z,3.57
2018-03-15T15:33:59.379Z,4.20
2018-03-15T15:37:03.467Z,3.47
2018-03-15T15:40:07.628Z,4.10
2018-03-15T15:43:11.051Z,3.80
2018-03-15T15:46:14.461Z,3.57
2018-03-15T15:49:18.570Z,4.20
2018-03-15T15:52:21.917Z,3.80
2018-03-15T15:55:25.546Z,4.03
2018-03-15T15:58:28.928Z,3.90
2018-03-15T16:01:32.338Z,3.43
2018-03-15T16:04:35.749Z,3.30
2018-03-15T16:07:39.093Z,2.87
2018-03-15T16:10:43.313Z,3.37
2018-03-15T16:13:47.459Z,2.73
2018-03-15T16:16:50.850Z,3.00
2018-03-15T16:19:54.314Z,3.10
2018-03-15T16:22:59.194Z,4.00
2018-03-15T16:26:02.654Z,4.20
2018-03-15T16:29:06.046Z,2.90
2018-03-15T16:32:10.184Z,4.07
2018-03-15T16:35:14.317Z,3.33
2018-03-15T16:38:17.735Z,3.57
2018-03-15T16:41:21.145Z,4.37
2018-03-15T16:44:24.527Z,3.83
2018-03-15T16:47:27.889Z,4.50
2018-03-15T16:50:31.330Z,3.30
2018-03-15T16:53:34.693Z,3.40
2018-03-15T16:56:38.825Z,3.77
2018-03-15T16:59:42.981Z,2.90
2018-03-15T17:02:46.365Z,3.27
2018-03-15T17:05:49.755Z,3.40
2018-03-15T17:08:53.158Z,3.40
2018-03-15T17:11:56.623Z,3.13
2018-03-15T17:14:59.999Z,2.87
2018-03-15T17:18:03.356Z,3.23
2018-03-15T17:21:06.918Z,3.33
2018-03-15T17:24:10.299Z,3.27
2018-03-15T17:27:13.768Z,3.80
2018-03-15T17:30:17.355Z,2.93
2018-03-15T17:33:20.727Z,2.63
2018-03-15T17:36:24.135Z,2.80
2018-03-15T17:39:28.292Z,3.57
2018-03-15T17:42:31.694Z,3.43
2018-03-15T17:45:35.061Z,3.33
2018-03-15T17:48:39.253Z,2.93
2018-03-15T17:51:42.613Z,3.10
2018-03-15T17:54:46.034Z,4.07
2018-03-15T17:57:49.406Z,3.60
2018-03-15T18:00:52.769Z,3.27
2018-03-15T18:03:56.966Z,2.47
2018-03-15T18:07:01.885Z,2.70
2018-03-15T18:10:05.342Z,2.93
2018-03-15T18:13:08.706Z,3.90
2018-03-15T18:16:12.982Z,3.47
2018-03-15T18:19:16.335Z,4.00
2018-03-15T18:22:19.748Z,3.67
2018-03-15T18:25:23.897Z,3.20
2018-03-15T18:28:27.283Z,4.20
2018-03-15T18:31:30.663Z,3.73
2018-03-15T18:34:34.789Z,3.70
2018-03-15T18:37:38.184Z,3.17
2018-03-15T18:40:42.357Z,3.83
2018-03-15T18:43:45.727Z,4.40
2018-03-15T18:46:49.123Z,4.07
2018-03-15T18:49:52.491Z,4.50
2018-03-15T18:52:56.619Z,4.20
2018-03-15T18:56:00.008Z,4.67
2018-03-15T18:59:04.173Z,4.60
2018-03-15T19:02:07.748Z,4.83
2018-03-15T19:05:11.131Z,4.20
2018-03-15T19:08:15.306Z,4.50
2018-03-15T19:11:18.695Z,5.17
2018-03-15T19:14:22.143Z,6.17
2018-03-15T19:17:26.300Z,5.23
2018-03-15T19:20:29.690Z,6.37
2018-03-15T19:23:33.063Z,5.03
2018-03-15T19:26:37.211Z,4.60
2018-03-15T19:29:40.648Z,4.77
2018-03-15T19:32:44.036Z,3.60
2018-03-15T19:35:47.496Z,3.93
2018-03-15T19:38:51.004Z,4.83
2018-03-15T19:41:54.467Z,4.10
2018-03-15T19:44:57.873Z,5.03
2018-03-15T19:48:02.019Z,4.10
2018-03-15T19:51:05.426Z,4.63
2018-03-15T19:54:08.830Z,3.93
2018-03-15T19:57:12.199Z,3.70
2018-03-15T20:00:16.347Z,4.00
2018-03-15T20:03:19.762Z,4.87
2018-03-15T20:06:23.127Z,4.50
2018-03-15T20:09:26.535Z,3.73
2018-03-15T20:12:30.650Z,4.07
2018-03-15T20:15:39.502Z,4.13
2018-03-15T20:18:42.879Z,4.30
2018-03-15T20:21:46.295Z,4.07
2018-03-15T20:24:49.652Z,3.80
2018-03-15T20:27:59.254Z,4.80
2018-03-15T20:31:02.613Z,5.70
2018-03-15T20:34:08.926Z,4.47
2018-03-15T20:37:12.496Z,4.00
2018-03-15T20:40:21.484Z,4.60
2018-03-15T20:43:24.882Z,4.87
2018-03-15T20:50:03.159Z,4.00
2018-03-15T20:53:06.539Z,4.20
2018-03-15T20:56:10.667Z,4.47
2018-03-15T20:59:14.828Z,4.80
2018-03-15T21:02:18.215Z,4.57
2018-03-15T21:05:21.626Z,3.90
2018-03-15T21:08:25.003Z,4.53
2018-03-15T21:11:28.376Z,4.50
2018-03-15T21:14:32.508Z,4.00
2018-03-15T21:17:35.893Z,4.57
2018-03-15T21:20:39.271Z,3.87
2018-03-15T21:23:42.631Z,4.63
2018-03-15T21:26:46.073Z,4.60
2018-03-15T21:29:49.389Z,4.50
2018-03-15T21:32:53.534Z,3.33
2018-03-15T21:35:56.980Z,4.40
2018-03-15T21:39:00.361Z,4.40
2018-03-15T21:42:03.742Z,3.60
2018-03-15T21:45:07.120Z,4.50
2018-03-15T21:48:10.514Z,4.47
2018-03-15T21:51:13.899Z,3.90
2018-03-15T21:54:18.038Z,4.90
2018-03-15T21:57:22.101Z,4.30
2018-03-15T22:00:26.986Z,3.80
2018-03-15T22:03:30.347Z,4.40
2018-03-15T22:06:35.268Z,3.87
2018-03-15T22:09:38.647Z,4.60
2018-03-15T22:12:42.020Z,4.80
2018-03-15T22:15:45.389Z,4.37
2018-03-15T22:18:48.742Z,4.93
2018-03-15T22:21:52.099Z,4.27
2018-03-15T22:24:56.225Z,4.20
2018-03-15T22:27:59.725Z,4.13
2018-03-15T22:31:03.088Z,4.40
2018-03-15T22:34:07.430Z,4.97
2018-03-15T22:37:11.818Z,3.70
2018-03-15T22:40:15.190Z,3.80
2018-03-15T22:43:18.548Z,4.73
2018-03-15T22:46:22.691Z,4.00
2018-03-15T22:49:26.083Z,4.63
2018-03-15T22:52:29.458Z,4.00
2018-03-15T22:55:32.809Z,4.03
2018-03-15T22:58:36.184Z,3.70
2018-03-15T23:01:39.545Z,3.97
2018-03-15T23:04:44.415Z,4.00
2018-03-15T23:07:47.775Z,3.93
2018-03-15T23:10:52.633Z,3.77
2018-03-15T23:13:56.767Z,3.67
2018-03-15T23:17:00.208Z,3.80
2018-03-15T23:20:03.567Z,4.67
2018-03-15T23:23:06.930Z,3.93
2018-03-15T23:26:11.200Z,3.93
2018-03-15T23:29:14.571Z,3.57
2018-03-15T23:32:18.690Z,3.20
2018-03-15T23:35:22.830Z,4.53
2018-03-15T23:38:26.174Z,3.90
2018-03-15T23:41:29.548Z,3.80
2018-03-15T23:44:32.890Z,4.00
2018-03-15T23:47:37.017Z,3.37
2018-03-15T23:50:41.157Z,3.83
2018-03-15T23:53:44.528Z,3.40
2018-03-15T23:56:48.642Z,4.10
2018-03-15T23:59:52.767Z,4.17
